Time;durP1;ratioP1;P1;durP2;ratioP2;P2;SDS_P1;SDS_P2;PMS_P1;PMS_P2;Temp;Humidity;BMP_temperature;BMP_pressure;BME280_temperature;BME280_humidity;BME280_pressure;Samples;Min_cycle;Max_cycle;Signal;HPM_P1;HPM_P2
2023/12/25 00:01:06;;;;;;;3.42;1.50;;;13.80;90.60;;;;;;5051276;28;20465;-59
2023/12/25 00:03:32;;;;;;;1.65;1.40;;;13.80;90.60;;;;;;5049178;28;20057;-60
2023/12/25 00:06:15;;;;;;;4.90;1.73;;;13.80;90.60;;;;;;5051640;28;20079;-60
2023/12/25 00:08:43;;;;;;;2.78;1.20;;;13.90;90.60;;;;;;5048275;28;20043;-60
2023/12/25 00:11:13;;;;;;;2.40;1.00;;;13.80;90.60;;;;;;5063865;28;20044;-57
2023/12/25 00:13:39;;;;;;;3.08;1.50;;;13.80;90.60;;;;;;5051056;28;20041;-60
2023/12/25 00:16:07;;;;;;;1.90;1.10;;;13.80;90.60;;;;;;5054201;28;20037;-58
2023/12/25 00:18:37;;;;;;;2.30;1.02;;;14.00;90.70;;;;;;5048781;28;20069;-58
2023/12/25 00:21:06;;;;;;;1.33;1.23;;;13.80;90.70;;;;;;5051064;28;20043;-60
2023/12/25 00:23:33;;;;;;;2.28;1.73;;;13.90;90.70;;;;;;5055869;28;20111;-60
2023/12/25 00:25:59;;;;;;;2.83;1.30;;;13.90;90.70;;;;;;5062333;28;20041;-57
2023/12/25 00:28:26;;;;;;;5.35;1.42;;;13.80;90.70;;;;;;5068040;28;20086;-60
2023/12/25 00:30:53;;;;;;;4.15;1.45;;;13.80;90.60;;;;;;5048450;28;20041;-59
2023/12/25 00:33:20;;;;;;;2.10;1.27;;;13.90;90.70;;;;;;5055400;28;20099;-60
2023/12/25 00:35:47;;;;;;;2.90;1.83;;;13.80;90.60;;;;;;5050664;28;20033;-60
2023/12/25 00:38:16;;;;;;;2.28;1.33;;;13.80;90.60;;;;;;5046772;28;20044;-58
2023/12/25 00:40:46;;;;;;;2.25;1.15;;;13.90;90.70;;;;;;5047720;28;20389;-58
2023/12/25 00:43:14;;;;;;;1.80;1.40;;;13.80;90.70;;;;;;5051477;28;20171;-60
2023/12/25 00:45:40;;;;;;;1.20;0.98;;;13.90;90.70;;;;;;5042705;28;20053;-60
2023/12/25 00:48:12;;;;;;;2.03;1.50;;;13.90;90.60;;;;;;5037665;28;20044;-59
2023/12/25 00:50:39;;;;;;;1.35;1.20;;;13.90;90.60;;;;;;5027910;28;20053;-61
2023/12/25 00:53:13;;;;;;;4.53;2.10;;;13.90;90.70;;;;;;5046344;28;20038;-60
2023/12/25 00:55:43;;;;;;;4.22;2.03;;;13.90;90.60;;;;;;5027957;28;20116;-58
2023/12/25 00:58:21;;;;;;;1.13;1.05;;;13.90;90.60;;;;;;5032918;28;20045;-60
2023/12/25 01:00:48;;;;;;;1.60;1.40;;;13.90;90.60;;;;;;5032264;28;20474;-60
2023/12/25 01:03:16;;;;;;;3.03;1.20;;;13.90;90.50;;;;;;5034166;28;20045;-58
2023/12/25 01:05:45;;;;;;;1.15;0.88;;;13.80;90.60;;;;;;5047612;28;20140;-60
2023/12/25 01:08:12;;;;;;;1.33;1.15;;;13.90;90.60;;;;;;5039002;28;20498;-59
2023/12/25 01:10:40;;;;;;;2.20;1.10;;;13.90;90.60;;;;;;5050605;28;20068;-59
2023/12/25 01:13:09;;;;;;;2.10;1.30;;;13.80;90.60;;;;;;5031365;28;20412;-58
2023/12/25 01:15:36;;;;;;;1.50;1.17;;;13.90;90.60;;;;;;5024046;28;20049;-60
2023/12/25 01:18:04;;;;;;;1.50;0.90;;;13.90;90.60;;;;;;5042143;28;20051;-60
2023/12/25 01:20:40;;;;;;;1.40;0.98;;;13.80;90.60;;;;;;5031595;28;20040;-59
2023/12/25 01:23:09;;;;;;;3.53;1.10;;;13.90;90.70;;;;;;5024465;28;20049;-60
2023/12/25 01:25:35;;;;;;;2.03;1.80;;;13.80;90.60;;;;;;5049674;28;20049;-61
2023/12/25 01:28:04;;;;;;;1.70;1.35;;;13.90;90.60;;;;;;5035770;28;20056;-59
2023/12/25 01:30:41;;;;;;;1.35;0.95;;;13.90;90.70;;;;;;5039549;28;20040;-59
2023/12/25 01:33:10;;;;;;;1.38;1.27;;;13.90;90.60;;;;;;5036370;28;20561;-59
2023/12/25 01:35:37;;;;;;;2.80;1.48;;;13.90;90.60;;;;;;5032819;28;20510;-60
2023/12/25 01:38:06;;;;;;;1.20;1.10;;;13.90;90.70;;;;;;5035047;28;20037;-59
2023/12/25 01:40:35;;;;;;;3.35;1.45;;;13.90;90.60;;;;;;5027671;28;20088;-58
2023/12/25 01:43:01;;;;;;;1.00;0.95;;;13.90;90.60;;;;;;5049827;28;20044;-59
2023/12/25 01:45:28;;;;;;;1.05;0.98;;;13.90;90.70;;;;;;5049462;28;20061;-58
2023/12/25 01:47:55;;;;;;;3.72;1.48;;;13.90;90.60;;;;;;5049656;28;20037;-59
2023/12/25 01:50:27;;;;;;;1.83;1.65;;;13.90;90.60;;;;;;5031635;28;20111;-59
2023/12/25 01:52:57;;;;;;;1.10;1.10;;;13.90;90.60;;;;;;5037341;28;20536;-59
2023/12/25 01:55:27;;;;;;;1.67;1.25;;;13.90;90.60;;;;;;5024798;28;20046;-60
2023/12/25 01:57:55;;;;;;;0.70;0.70;;;13.90;90.70;;;;;;5036633;28;20040;-57
2023/12/25 02:00:25;;;;;;;1.73;1.38;;;13.90;90.60;;;;;;5044436;28;20416;-59
2023/12/25 02:02:52;;;;;;;1.05;0.90;;;13.90;90.70;;;;;;5048710;28;20041;-59
2023/12/25 02:05:21;;;;;;;0.90;0.85;;;13.90;90.70;;;;;;5051881;28;20500;-61
2023/12/25 02:07:56;;;;;;;2.00;0.70;;;13.90;90.70;;;;;;5043942;28;20120;-59
2023/12/25 02:10:29;;;;;;;2.05;1.10;;;13.90;90.70;;;;;;5032221;28;20053;-59
2023/12/25 02:12:57;;;;;;;1.95;1.55;;;13.90;90.70;;;;;;5024079;28;20064;-58
2023/12/25 02:15:27;;;;;;;1.42;1.10;;;13.90;90.60;;;;;;5047417;28;20057;-60
2023/12/25 02:17:54;;;;;;;1.52;1.10;;;13.90;90.70;;;;;;5050247;28;20036;-59
2023/12/25 02:20:25;;;;;;;1.58;0.70;;;13.90;90.70;;;;;;5031318;28;20049;-57
2023/12/25 02:22:54;;;;;;;0.98;0.80;;;14.00;90.70;;;;;;5030518;28;20137;-60
2023/12/25 02:25:26;;;;;;;1.23;0.90;;;14.00;90.70;;;;;;5028533;28;20053;-58
2023/12/25 02:27:53;;;;;;;1.90;0.90;;;13.90;90.70;;;;;;5050264;28;20051;-59
2023/12/25 02:30:23;;;;;;;2.30;0.93;;;13.90;90.60;;;;;;5030760;28;20060;-60
2023/12/25 02:32:51;;;;;;;3.88;1.10;;;14.00;90.60;;;;;;5046056;28;20513;-58
2023/12/25 02:35:18;;;;;;;1.73;1.50;;;14.00;90.60;;;;;;5031561;28;20538;-61
2023/12/25 02:37:52;;;;;;;2.15;1.00;;;13.90;90.60;;;;;;5030452;28;20049;-59
2023/12/25 02:40:22;;;;;;;2.42;0.80;;;14.00;90.60;;;;;;5029791;28;20459;-57
2023/12/25 02:42:49;;;;;;;1.05;0.75;;;14.00;90.60;;;;;;5041865;28;20053;-58
2023/12/25 02:45:23;;;;;;;0.70;0.70;;;14.00;90.60;;;;;;5048918;28;20111;-60
2023/12/25 02:47:53;;;;;;;0.70;0.70;;;14.00;90.60;;;;;;5032062;28;20051;-60
2023/12/25 02:50:22;;;;;;;1.45;0.98;;;14.00;90.60;;;;;;5029364;28;20150;-60
2023/12/25 02:52:49;;;;;;;2.15;0.80;;;13.90;90.50;;;;;;5026807;28;20780;-59
2023/12/25 02:55:15;;;;;;;1.70;0.88;;;14.00;90.60;;;;;;5044523;28;20045;-60
2023/12/25 02:57:48;;;;;;;1.17;0.70;;;14.00;90.60;;;;;;5030610;28;20044;-58
2023/12/25 03:00:15;;;;;;;0.88;0.65;;;14.00;90.70;;;;;;5026166;28;20041;-59
2023/12/25 03:02:49;;;;;;;0.77;0.70;;;14.00;90.50;;;;;;5030080;28;20045;-60
2023/12/25 03:05:16;;;;;;;0.40;0.40;;;14.00;90.50;;;;;;5035720;28;20503;-60
2023/12/25 03:07:44;;;;;;;1.00;0.65;;;14.00;90.50;;;;;;5050186;28;20115;-60
2023/12/25 03:10:11;;;;;;;0.60;0.60;;;14.00;90.50;;;;;;5037031;28;20499;-60
2023/12/25 03:12:38;;;;;;;0.95;0.40;;;14.00;90.50;;;;;;5036135;28;20099;-60
2023/12/25 03:15:08;;;;;;;0.55;0.55;;;14.00;90.50;;;;;;5050156;28;20056;-60
2023/12/25 03:17:37;;;;;;;0.98;0.50;;;13.90;90.50;;;;;;5054784;28;20099;-60
2023/12/25 03:20:05;;;;;;;0.45;0.45;;;14.00;90.50;;;;;;5047051;28;20041;-61
2023/12/25 03:22:31;;;;;;;0.85;0.85;;;14.00;90.50;;;;;;5033274;28;20511;-56
2023/12/25 03:25:12;;;;;;;0.77;0.65;;;14.00;90.50;;;;;;5046455;28;20435;-61
2023/12/25 03:27:39;;;;;;;0.90;0.50;;;14.00;90.50;;;;;;5053717;28;20067;-58
2023/12/25 03:30:08;;;;;;;0.90;0.47;;;14.00;90.60;;;;;;5033834;28;20075;-61
2023/12/25 03:32:36;;;;;;;0.70;0.60;;;14.00;90.60;;;;;;5051440;28;20044;-60
2023/12/25 03:35:03;;;;;;;0.70;0.70;;;14.00;90.60;;;;;;5054303;28;20132;-58
2023/12/25 03:37:33;;;;;;;1.05;0.68;;;14.00;90.60;;;;;;5034878;28;20041;-60
2023/12/25 03:40:05;;;;;;;0.65;0.65;;;14.00;90.90;;;;;;5031498;28;20057;-61
2023/12/25 03:42:32;;;;;;;1.88;0.90;;;14.00;90.60;;;;;;5049070;28;20052;-61
2023/12/25 03:45:05;;;;;;;0.85;0.80;;;14.00;90.60;;;;;;5056556;28;20044;-58
2023/12/25 03:47:32;;;;;;;1.17;0.75;;;14.00;90.60;;;;;;5052436;28;20470;-59
2023/12/25 03:50:01;;;;;;;0.80;0.60;;;14.00;90.60;;;;;;5032822;28;20049;-59
2023/12/25 03:52:30;;;;;;;0.80;0.77;;;14.00;90.50;;;;;;5052005;28;20079;-60
2023/12/25 03:54:59;;;;;;;1.27;0.70;;;14.00;90.50;;;;;;5052673;28;20107;-57
2023/12/25 03:57:26;;;;;;;2.28;0.95;;;14.00;90.50;;;;;;5051542;28;20112;-60
2023/12/25 03:59:55;;;;;;;0.70;0.70;;;14.00;90.50;;;;;;5031860;28;20049;-61
2023/12/25 04:02:25;;;;;;;1.13;1.00;;;14.00;90.50;;;;;;5027850;28;20049;-60
2023/12/25 04:04:52;;;;;;;0.75;0.75;;;14.00;90.50;;;;;;5030427;28;20049;-60
2023/12/25 04:07:22;;;;;;;0.80;0.80;;;14.00;90.50;;;;;;5033684;28;20076;-60
2023/12/25 04:09:50;;;;;;;2.50;0.50;;;14.00;90.40;;;;;;5033211;28;20074;-60
2023/12/25 04:12:17;;;;;;;0.80;0.57;;;14.00;90.40;;;;;;5053888;28;20072;-60
2023/12/25 04:14:46;;;;;;;1.23;0.52;;;14.00;90.50;;;;;;5033384;28;20660;-60
2023/12/25 04:17:16;;;;;;;0.95;0.50;;;14.00;90.50;;;;;;5052368;28;20491;-62
2023/12/25 04:19:43;;;;;;;1.27;0.90;;;14.00;90.50;;;;;;5035019;28;20407;-59
2023/12/25 04:22:13;;;;;;;2.08;0.68;;;14.00;90.40;;;;;;5032752;28;20037;-60
2023/12/25 04:24:40;;;;;;;0.30;0.30;;;14.00;90.50;;;;;;5032395;28;20484;-60
2023/12/25 04:27:06;;;;;;;1.10;0.40;;;14.00;90.50;;;;;;5050340;28;20037;-60
2023/12/25 04:29:35;;;;;;;0.40;0.40;;;14.00;90.50;;;;;;5033567;28;20074;-60
2023/12/25 04:32:04;;;;;;;1.23;0.30;;;14.00;90.50;;;;;;5053227;28;20048;-59
2023/12/25 04:34:33;;;;;;;0.52;0.40;;;14.00;90.40;;;;;;5036356;28;20519;-61
2023/12/25 04:37:02;;;;;;;3.00;0.38;;;14.00;90.40;;;;;;5034364;28;20044;-60
2023/12/25 04:39:29;;;;;;;0.47;0.28;;;14.00;90.50;;;;;;5046066;28;20076;-60
2023/12/25 04:41:58;;;;;;;1.45;0.43;;;14.00;90.50;;;;;;5032967;28;20407;-60
2023/12/25 04:44:28;;;;;;;1.65;0.30;;;14.00;90.50;;;;;;5055966;28;20068;-58
2023/12/25 04:46:55;;;;;;;0.68;0.40;;;13.90;90.50;;;;;;5033033;28;20118;-59
2023/12/25 04:49:23;;;;;;;1.10;0.60;;;14.00;90.50;;;;;;5034354;28;20045;-60
2023/12/25 04:51:50;;;;;;;0.15;0.15;;;14.00;90.50;;;;;;5052596;28;20068;-60
2023/12/25 04:54:17;;;;;;;0.35;0.30;;;14.00;90.50;;;;;;5032307;28;20542;-60
2023/12/25 04:56:48;;;;;;;0.20;0.15;;;14.00;90.50;;;;;;5055076;28;20112;-59
2023/12/25 04:59:20;;;;;;;1.73;0.22;;;13.90;90.50;;;;;;5045607;28;20045;-60
2023/12/25 05:01:49;;;;;;;0.55;0.30;;;13.90;90.50;;;;;;5026777;28;20563;-59
2023/12/25 05:04:21;;;;;;;0.30;0.20;;;13.90;90.50;;;;;;5025168;28;20041;-60
2023/12/25 05:06:47;;;;;;;0.22;0.22;;;13.90;90.50;;;;;;5060849;28;20103;-61
2023/12/25 05:09:16;;;;;;;0.60;0.47;;;13.90;90.50;;;;;;5038927;28;20140;-60
2023/12/25 05:11:42;;;;;;;1.48;0.30;;;13.90;90.50;;;;;;5040466;28;20578;-58
2023/12/25 05:14:09;;;;;;;0.82;0.30;;;13.90;90.40;;;;;;5063564;28;20059;-60
2023/12/25 05:16:38;;;;;;;0.70;0.52;;;13.90;90.40;;;;;;5035159;28;20041;-61
2023/12/25 05:19:05;;;;;;;0.80;0.20;;;13.90;90.50;;;;;;5049482;28;20041;-59
2023/12/25 05:21:32;;;;;;;0.93;0.20;;;13.90;90.50;;;;;;5032953;28;20128;-59
2023/12/25 05:23:58;;;;;;;0.63;0.30;;;13.90;90.50;;;;;;5048049;28;20495;-60
2023/12/25 05:26:27;;;;;;;0.50;0.35;;;13.90;90.50;;;;;;5034406;28;20043;-60
2023/12/25 05:28:58;;;;;;;2.20;0.63;;;13.80;90.50;;;;;;5054200;28;20045;-59
2023/12/25 05:31:28;;;;;;;0.60;0.30;;;13.80;90.50;;;;;;5046012;28;20060;-61
2023/12/25 05:33:54;;;;;;;0.17;0.17;;;13.80;90.50;;;;;;5054816;28;20091;-60
2023/12/25 05:36:21;;;;;;;0.55;0.20;;;13.80;90.50;;;;;;5051804;28;20037;-60
2023/12/25 05:38:52;;;;;;;0.35;0.20;;;13.80;90.50;;;;;;5046659;28;20084;-61
2023/12/25 05:41:39;;;;;;;0.47;0.40;;;13.80;90.50;;;;;;5056801;28;20047;-60
2023/12/25 05:44:08;;;;;;;0.63;0.40;;;13.80;90.50;;;;;;5051782;28;20106;-60
2023/12/25 05:46:36;;;;;;;1.55;0.40;;;13.80;90.50;;;;;;5052043;28;20115;-60
2023/12/25 05:49:07;;;;;;;1.13;0.63;;;13.80;90.50;;;;;;5051179;28;20411;-60
2023/12/25 05:51:34;;;;;;;0.55;0.32;;;13.80;90.50;;;;;;5049727;28;20079;-60
2023/12/25 05:54:03;;;;;;;1.27;0.77;;;13.80;90.50;;;;;;5050821;28;20522;-57
2023/12/25 05:56:32;;;;;;;0.30;0.30;;;13.80;90.50;;;;;;5049551;28;20037;-59
2023/12/25 05:59:04;;;;;;;1.10;0.50;;;13.80;90.60;;;;;;5048594;28;20549;-58
2023/12/25 06:01:31;;;;;;;0.50;0.40;;;13.80;90.60;;;;;;5048357;28;20041;-59
2023/12/25 06:04:07;;;;;;;1.65;0.47;;;13.80;90.60;;;;;;5052064;28;20083;-60
2023/12/25 06:06:35;;;;;;;1.30;0.40;;;13.80;90.60;;;;;;5050828;28;20041;-59
2023/12/25 06:09:02;;;;;;;1.25;0.68;;;13.80;90.60;;;;;;5037034;28;20041;-59
2023/12/25 06:11:35;;;;;;;1.55;0.40;;;13.80;90.70;;;;;;5052126;28;20044;-58
2023/12/25 06:14:03;;;;;;;0.47;0.47;;;13.80;90.60;;;;;;5054135;28;20476;-59
2023/12/25 06:16:33;;;;;;;2.60;0.38;;;13.80;90.60;;;;;;5047695;28;20116;-60
2023/12/25 06:19:00;;;;;;;0.40;0.40;;;13.80;90.60;;;;;;5048713;28;20415;-61
2023/12/25 06:21:27;;;;;;;3.50;0.57;;;13.80;90.50;;;;;;5047671;28;20043;-58
2023/12/25 06:23:56;;;;;;;0.85;0.63;;;13.80;90.60;;;;;;5052415;28;20119;-62
2023/12/25 06:26:25;;;;;;;0.75;0.43;;;13.80;90.60;;;;;;5048773;28;20095;-60
2023/12/25 06:28:52;;;;;;;0.95;0.50;;;13.80;90.60;;;;;;5045168;28;20119;-61
2023/12/25 06:31:18;;;;;;;0.80;0.70;;;13.80;90.60;;;;;;5047426;28;20040;-61
2023/12/25 06:33:47;;;;;;;1.92;0.40;;;13.80;90.70;;;;;;5049710;28;20079;-59
2023/12/25 06:36:14;;;;;;;0.82;0.57;;;13.80;90.70;;;;;;5052741;28;20041;-60
2023/12/25 06:38:42;;;;;;;1.63;0.50;;;13.80;90.70;;;;;;5051188;28;20048;-60
2023/12/25 06:41:11;;;;;;;0.40;0.32;;;13.80;90.60;;;;;;5051487;28;20065;-60
2023/12/25 06:43:38;;;;;;;0.45;0.38;;;13.80;90.60;;;;;;5054377;28;20061;-60
2023/12/25 06:46:04;;;;;;;2.47;0.35;;;13.80;90.60;;;;;;5056459;28;20072;-60
2023/12/25 06:48:31;;;;;;;0.77;0.77;;;13.80;90.70;;;;;;5052938;28;20116;-61
2023/12/25 06:51:01;;;;;;;0.68;0.30;;;13.80;90.60;;;;;;5048759;28;20044;-60
2023/12/25 06:53:30;;;;;;;0.45;0.30;;;13.80;90.70;;;;;;5050550;28;20060;-61
2023/12/25 06:55:58;;;;;;;1.27;0.52;;;13.80;90.60;;;;;;5055761;28;20041;-59
2023/12/25 06:58:25;;;;;;;1.80;0.40;;;13.90;90.70;;;;;;5050263;28;20052;-58
2023/12/25 07:00:54;;;;;;;0.60;0.40;;;13.80;90.60;;;;;;5048612;28;20080;-61
2023/12/25 07:03:22;;;;;;;1.75;0.40;;;13.80;90.60;;;;;;5051982;28;20043;-58
2023/12/25 07:05:52;;;;;;;1.10;0.50;;;13.90;90.60;;;;;;5053110;28;20407;-60
2023/12/25 07:08:20;;;;;;;1.60;0.60;;;13.90;90.60;;;;;;5053630;28;20511;-61
2023/12/25 07:10:46;;;;;;;0.95;0.40;;;13.90;90.60;;;;;;5055812;28;20499;-61
2023/12/25 07:13:14;;;;;;;0.40;0.30;;;13.90;90.60;;;;;;5052620;28;20120;-61
2023/12/25 07:15:44;;;;;;;0.30;0.20;;;13.90;90.60;;;;;;5050722;28;20412;-59
2023/12/25 07:18:12;;;;;;;1.27;0.30;;;13.90;90.60;;;;;;5057142;28;20089;-61
2023/12/25 07:20:53;;;;;;;0.98;0.40;;;13.90;90.60;;;;;;5051512;28;20029;-61
2023/12/25 07:23:21;;;;;;;0.80;0.30;;;13.90;90.60;;;;;;5048872;28;20496;-60
2023/12/25 07:25:48;;;;;;;4.47;0.30;;;13.90;90.60;;;;;;5060438;28;20041;-60
2023/12/25 07:28:17;;;;;;;0.57;0.28;;;13.90;90.60;;;;;;5052538;28;20076;-60
2023/12/25 07:30:48;;;;;;;0.50;0.50;;;13.90;90.50;;;;;;5056614;28;20462;-61
2023/12/25 07:33:15;;;;;;;0.63;0.50;;;13.90;90.60;;;;;;5052182;28;20678;-61
2023/12/25 07:35:44;;;;;;;1.85;0.38;;;14.00;90.60;;;;;;5061545;28;20507;-61
2023/12/25 07:38:12;;;;;;;0.60;0.52;;;14.00;90.60;;;;;;5057162;28;20151;-61
2023/12/25 07:40:42;;;;;;;0.65;0.50;;;14.00;90.80;;;;;;5055279;28;20398;-61
2023/12/25 07:43:12;;;;;;;0.95;0.30;;;14.00;90.60;;;;;;5060609;28;20048;-62
2023/12/25 07:45:44;;;;;;;0.25;0.15;;;14.00;90.50;;;;;;5052277;28;20035;-60
2023/12/25 07:48:10;;;;;;;2.00;0.50;;;14.00;90.50;;;;;;5056599;28;20451;-61
2023/12/25 07:50:40;;;;;;;0.20;0.20;;;14.00;90.50;;;;;;5054975;28;20041;-60
2023/12/25 07:53:09;;;;;;;0.10;0.10;;;14.00;90.50;;;;;;5049217;28;20044;-60
2023/12/25 07:55:40;;;;;;;0.88;0.40;;;14.00;90.50;;;;;;5039038;28;20043;-61
2023/12/25 07:58:06;;;;;;;0.10;0.10;;;14.00;90.40;;;;;;5054153;28;20037;-62
2023/12/25 08:00:33;;;;;;;0.28;0.20;;;14.00;90.40;;;;;;5050578;28;20518;-62
2023/12/25 08:03:12;;;;;;;0.32;0.30;;;14.10;90.50;;;;;;5052566;28;20048;-61
2023/12/25 08:05:39;;;;;;;0.73;0.20;;;14.10;90.40;;;;;;5051773;28;20037;-62
2023/12/25 08:08:14;;;;;;;0.80;0.20;;;14.10;90.40;;;;;;5049946;28;20051;-62
2023/12/25 08:10:43;;;;;;;0.50;0.20;;;14.10;90.40;;;;;;5061096;28;20455;-62
2023/12/25 08:13:19;;;;;;;0.55;0.20;;;14.10;90.40;;;;;;5040194;28;20100;-60
2023/12/25 08:15:46;;;;;;;0.10;0.10;;;14.10;90.40;;;;;;5033532;28;20045;-60
2023/12/25 08:18:16;;;;;;;0.10;0.10;;;14.10;90.40;;;;;;5051980;28;20040;-61
2023/12/25 08:20:45;;;;;;;;;;;14.20;90.40;;;;;;5055876;28;20045;-61
2023/12/25 08:23:12;;;;;;;0.25;0.25;;;14.20;90.40;;;;;;5047113;28;19928;-62
2023/12/25 08:25:40;;;;;;;0.75;0.20;;;14.20;90.20;;;;;;5056908;28;20040;-61
2023/12/25 08:28:09;;;;;;;0.20;0.20;;;14.20;90.20;;;;;;5034320;28;20557;-60
2023/12/25 08:30:36;;;;;;;0.40;0.40;;;14.20;90.20;;;;;;5057279;28;20585;-61
2023/12/25 08:33:08;;;;;;;0.20;0.20;;;14.20;90.30;;;;;;5053291;28;20418;-61
2023/12/25 08:35:34;;;;;;;0.32;0.20;;;14.30;90.30;;;;;;5055244;28;20033;-62
2023/12/25 08:38:02;;;;;;;0.47;0.20;;;14.20;90.20;;;;;;5055091;28;20132;-62
2023/12/25 08:40:31;;;;;;;0.82;0.30;;;14.20;90.20;;;;;;5049427;28;20036;-61
2023/12/25 08:43:00;;;;;;;0.73;0.20;;;14.30;90.30;;;;;;5062335;28;20072;-61
2023/12/25 08:45:35;;;;;;;0.20;0.20;;;14.20;90.20;;;;;;5051188;28;20048;-61
2023/12/25 08:48:07;;;;;;;0.20;0.20;;;14.30;90.20;;;;;;5056566;28;20046;-62
2023/12/25 08:50:34;;;;;;;0.73;0.13;;;14.30;90.10;;;;;;5052090;28;20041;-61
2023/12/25 08:53:01;;;;;;;0.60;0.20;;;14.30;90.10;;;;;;5048117;28;20100;-60
2023/12/25 08:55:27;;;;;;;0.73;0.30;;;14.30;90.10;;;;;;5038287;28;20045;-61
2023/12/25 08:57:54;;;;;;;0.40;0.40;;;14.30;90.00;;;;;;5048172;28;20064;-63
2023/12/25 09:00:21;;;;;;;0.98;0.30;;;14.30;90.00;;;;;;5049589;28;20684;-60
2023/12/25 09:02:55;;;;;;;0.52;0.22;;;14.30;89.90;;;;;;5050733;28;20095;-61
2023/12/25 09:05:24;;;;;;;1.05;0.30;;;14.30;89.90;;;;;;5052192;28;20411;-61
2023/12/25 09:07:53;;;;;;;0.20;0.20;;;14.30;89.80;;;;;;5033432;28;20048;-60
2023/12/25 09:10:23;;;;;;;0.35;0.30;;;14.30;89.70;;;;;;5049790;28;20129;-60
2023/12/25 09:12:52;;;;;;;1.45;0.35;;;14.30;89.70;;;;;;5048791;28;20047;-60
2023/12/25 09:15:19;;;;;;;0.30;0.28;;;14.30;89.80;;;;;;5052014;28;20049;-61
2023/12/25 09:17:46;;;;;;;0.20;0.10;;;14.30;89.90;;;;;;5052656;28;20068;-61
2023/12/25 09:20:16;;;;;;;0.22;0.20;;;14.30;89.90;;;;;;5031754;28;20566;-60
2023/12/25 09:22:47;;;;;;;0.60;0.10;;;14.20;90.00;;;;;;5053593;28;20080;-61
2023/12/25 09:25:16;;;;;;;0.50;0.10;;;14.30;90.00;;;;;;5037820;28;20075;-61
2023/12/25 09:27:46;;;;;;;0.22;0.20;;;14.20;90.00;;;;;;5056767;28;20275;-62
2023/12/25 09:30:17;;;;;;;0.20;0.20;;;14.30;90.00;;;;;;5046700;28;20063;-61
2023/12/25 09:32:46;;;;;;;0.40;0.20;;;14.30;90.00;;;;;;5038844;28;20100;-60
2023/12/25 09:35:18;;;;;;;0.20;0.20;;;14.30;90.00;;;;;;5055978;28;20044;-62
2023/12/25 09:37:48;;;;;;;0.30;0.30;;;14.30;90.00;;;;;;5053353;28;20094;-60
2023/12/25 09:40:15;;;;;;;0.30;0.30;;;14.30;89.80;;;;;;5052285;28;20091;-61
2023/12/25 09:42:43;;;;;;;0.20;0.20;;;14.20;89.80;;;;;;5055664;28;20041;-60
2023/12/25 09:45:11;;;;;;;0.10;0.10;;;14.20;89.90;;;;;;5059918;28;20048;-61
2023/12/25 09:47:38;;;;;;;0.40;0.35;;;14.20;90.00;;;;;;5056781;28;20041;-61
2023/12/25 09:50:06;;;;;;;0.38;0.30;;;14.30;90.00;;;;;;5048622;28;20065;-61
2023/12/25 09:52:35;;;;;;;0.35;0.35;;;14.20;90.00;;;;;;5055019;28;20040;-60
2023/12/25 09:55:11;;;;;;;0.45;0.30;;;14.20;90.00;;;;;;5055074;28;20039;-61
2023/12/25 09:57:41;;;;;;;0.20;0.20;;;14.30;90.00;;;;;;5055033;28;20483;-59
2023/12/25 10:00:09;;;;;;;0.95;0.30;;;14.30;90.00;;;;;;5045039;28;20053;-60
2023/12/25 10:02:43;;;;;;;0.45;0.40;;;14.30;90.00;;;;;;5049410;28;20037;-62
2023/12/25 10:05:12;;;;;;;0.30;0.30;;;14.30;90.00;;;;;;5045698;28;20124;-60
2023/12/25 10:07:39;;;;;;;0.28;0.28;;;14.30;90.00;;;;;;5048416;28;20091;-60
2023/12/25 10:10:09;;;;;;;0.22;0.22;;;14.30;90.00;;;;;;5055379;28;20060;-62
2023/12/25 10:12:41;;;;;;;0.30;0.30;;;14.30;90.00;;;;;;5056632;28;20116;-60
2023/12/25 10:15:14;;;;;;;0.30;0.30;;;14.30;90.00;;;;;;5052620;28;20056;-60
2023/12/25 10:17:41;;;;;;;0.35;0.35;;;14.30;90.00;;;;;;5050390;28;20103;-58
2023/12/25 10:20:08;;;;;;;0.57;0.32;;;14.30;90.00;;;;;;5048740;28;20069;-60
2023/12/25 10:22:38;;;;;;;1.25;0.17;;;14.30;89.90;;;;;;5047162;28;20049;-60
2023/12/25 10:25:13;;;;;;;1.02;0.35;;;14.30;90.00;;;;;;5054757;28;20133;-61
2023/12/25 10:27:42;;;;;;;0.40;0.38;;;14.40;90.00;;;;;;5049811;28;20065;-62
2023/12/25 10:30:21;;;;;;;0.40;0.40;;;14.30;90.00;;;;;;5049132;28;20399;-61
2023/12/25 10:32:49;;;;;;;0.47;0.30;;;14.40;90.10;;;;;;5053092;28;20091;-62
2023/12/25 10:35:22;;;;;;;0.57;0.30;;;14.30;90.10;;;;;;5049181;28;20045;-60
2023/12/25 10:37:51;;;;;;;0.20;0.20;;;14.40;90.40;;;;;;5056620;28;20487;-60
2023/12/25 10:40:23;;;;;;;0.30;0.30;;;14.40;90.10;;;;;;5051722;28;20056;-63
2023/12/25 10:42:55;;;;;;;0.68;0.20;;;14.40;90.10;;;;;;5031795;28;20044;-60
2023/12/25 10:45:27;;;;;;;0.10;0.10;;;14.40;90.10;;;;;;5055909;28;20068;-61
2023/12/25 10:47:58;;;;;;;0.30;0.30;;;14.40;90.10;;;;;;5046392;28;20044;-61
2023/12/25 10:50:33;;;;;;;0.30;0.30;;;14.40;90.10;;;;;;5047232;28;20127;-61
2023/12/25 10:53:06;;;;;;;0.90;0.30;;;14.40;90.10;;;;;;5046316;28;20482;-63
2023/12/25 10:55:41;;;;;;;0.40;0.40;;;14.40;90.30;;;;;;5055513;28;20066;-62
2023/12/25 10:58:13;;;;;;;0.50;0.50;;;14.40;90.30;;;;;;5053158;28;20083;-62
2023/12/25 11:00:45;;;;;;;0.20;0.20;;;14.40;90.30;;;;;;5047437;28;20115;-61
2023/12/25 11:03:15;;;;;;;1.10;0.22;;;14.40;90.60;;;;;;5051781;28;20402;-61
2023/12/25 11:05:48;;;;;;;0.25;0.25;;;14.40;90.30;;;;;;5047377;28;20063;-60
2023/12/25 11:08:17;;;;;;;0.20;0.20;;;14.40;90.30;;;;;;5030568;28;20084;-61
2023/12/25 11:10:57;;;;;;;0.20;0.20;;;14.40;90.20;;;;;;5048555;28;20060;-61
2023/12/25 11:13:26;;;;;;;0.75;0.30;;;14.40;90.20;;;;;;5049452;28;20053;-61
2023/12/25 11:15:53;;;;;;;0.52;0.50;;;14.40;90.20;;;;;;5043411;28;20044;-61
2023/12/25 11:18:21;;;;;;;0.50;0.50;;;14.50;90.30;;;;;;5045036;28;20406;-61
2023/12/25 11:21:07;;;;;;;1.13;0.60;;;14.50;90.30;;;;;;5058377;28;20029;-61
2023/12/25 11:23:36;;;;;;;0.60;0.60;;;14.40;90.20;;;;;;5048095;28;20136;-61
2023/12/25 11:26:06;;;;;;;0.52;0.50;;;14.40;90.30;;;;;;5056122;28;20064;-60
2023/12/25 11:28:42;;;;;;;0.45;0.30;;;14.50;90.40;;;;;;5061012;28;20047;-61
2023/12/25 11:31:20;;;;;;;0.30;0.30;;;14.50;90.40;;;;;;5063096;28;20111;-62
2023/12/25 11:33:47;;;;;;;0.32;0.32;;;14.50;90.40;;;;;;5048042;28;20037;-61
2023/12/25 11:36:16;;;;;;;0.40;0.30;;;14.50;90.30;;;;;;5052231;28;20107;-61
2023/12/25 11:38:58;;;;;;;0.20;0.20;;;14.50;90.30;;;;;;5052572;28;20376;-62
2023/12/25 11:41:27;;;;;;;1.42;0.50;;;14.50;90.20;;;;;;5052182;28;20084;-60
2023/12/25 11:44:08;;;;;;;0.60;0.60;;;14.50;90.20;;;;;;5030127;28;20067;-62
2023/12/25 11:46:43;;;;;;;0.63;0.32;;;14.50;90.30;;;;;;5042308;28;20047;-62
2023/12/25 11:49:14;;;;;;;0.17;0.17;;;14.50;90.30;;;;;;5058016;28;20048;-63
2023/12/25 11:51:48;;;;;;;0.45;0.30;;;14.50;90.30;;;;;;5046979;28;20060;-62
2023/12/25 11:54:17;;;;;;;0.20;0.20;;;14.60;90.30;;;;;;5048247;28;20112;-61
2023/12/25 11:56:48;;;;;;;0.40;0.30;;;14.60;90.30;;;;;;5060221;28;20047;-61
2023/12/25 11:59:16;;;;;;;0.20;0.20;;;14.60;90.30;;;;;;5047636;28;20175;-61
2023/12/25 12:01:44;;;;;;;0.20;0.20;;;14.60;90.30;;;;;;5050408;28;20236;-62
2023/12/25 12:04:10;;;;;;;0.45;0.45;;;14.60;90.20;;;;;;5050305;28;20407;-62
2023/12/25 12:06:42;;;;;;;0.60;0.55;;;14.60;90.20;;;;;;5047974;28;20055;-62
2023/12/25 12:09:09;;;;;;;0.47;0.30;;;14.60;90.10;;;;;;5052020;28;20033;-61
2023/12/25 12:11:36;;;;;;;0.63;0.28;;;14.60;90.10;;;;;;5051143;28;20041;-61
2023/12/25 12:14:05;;;;;;;0.30;0.30;;;14.60;90.10;;;;;;5051760;28;20088;-64
2023/12/25 12:16:39;;;;;;;0.40;0.20;;;14.60;90.10;;;;;;5047987;28;20037;-62
2023/12/25 12:19:06;;;;;;;0.30;0.30;;;14.60;90.20;;;;;;5052084;28;20119;-62
2023/12/25 12:21:35;;;;;;;1.05;0.30;;;14.60;90.20;;;;;;5050689;28;20041;-61
2023/12/25 12:24:03;;;;;;;0.30;0.30;;;14.70;90.10;;;;;;5042478;28;20044;-60
2023/12/25 12:26:31;;;;;;;0.30;0.30;;;14.60;90.10;;;;;;5059255;28;20043;-61
2023/12/25 12:29:00;;;;;;;0.30;0.30;;;14.70;90.10;;;;;;5052162;28;20708;-61
2023/12/25 12:31:27;;;;;;;0.38;0.32;;;14.70;90.00;;;;;;5044586;28;20041;-61
2023/12/25 12:33:54;;;;;;;0.40;0.38;;;14.70;90.00;;;;;;5051939;28;20045;-61
2023/12/25 12:36:23;;;;;;;1.70;0.45;;;14.60;90.00;;;;;;5050642;28;20080;-61
2023/12/25 12:38:53;;;;;;;0.45;0.45;;;14.70;90.00;;;;;;5051094;28;20108;-60
2023/12/25 12:41:22;;;;;;;0.40;0.32;;;14.70;89.90;;;;;;5046893;28;20045;-62
2023/12/25 12:43:48;;;;;;;0.32;0.30;;;14.60;89.70;;;;;;5051182;28;20040;-60
2023/12/25 12:46:16;;;;;;;0.38;0.38;;;14.60;89.80;;;;;;5050863;28;20128;-63
2023/12/25 12:48:44;;;;;;;0.40;0.30;;;14.70;90.00;;;;;;5048130;28;20114;-61
2023/12/25 12:51:13;;;;;;;0.50;0.50;;;14.70;90.00;;;;;;5051359;28;20041;-60
2023/12/25 12:53:40;;;;;;;0.57;0.50;;;14.60;90.10;;;;;;5045693;28;20419;-60
2023/12/25 12:56:12;;;;;;;0.68;0.40;;;14.70;90.00;;;;;;5050875;28;20043;-62
2023/12/25 12:58:39;;;;;;;0.52;0.50;;;14.70;89.90;;;;;;5046943;28;20136;-59